Ameagle, WV

1:57 AM EDT on September 30, 2014 (GMT -0400)
Joes Creek | Change Station
CLOSE
Current Station
Personal Weather Station
Location: Comfort, WV
Elevation: 784 ft
Nearby Weather Stations

Elev 784 ft 38.12 °N, 81.59 °W | Updated 17 seconds ago

Mostly Cloudy
Mostly Cloudy
61.3 °F
Feels Like 61.3 °F
N
0.0
Wind Variable Wind from SSW
Gusts 0.0 mph

Today
High -- | Low -- °F
--% Chance of Precip.
Yesterday
High -- | Low -- °F
Precip. -- in
7:20 AM 7:10 PM
Waxing Crescent, 33% visible
Pressure 29.94 in
Visibility 2.5 miles
Clouds Clear
Dew Point 61 °F
Humidity 98%
Rainfall 0.00 in
Snow Depth Not available.
UV 0 out of 12
Pollen 3.90 out of 12
Air Quality Not available.
Flu Activity Not available.
METAR KBKW 300551Z AUTO 00000KT 2 1/2SM BR CLR 14/13 A3000 RMK AO2 VIS 1/2 RWY19 SLP136 T01390128 10167 20133 56008 TSNO

More Conditions Fewer Conditions

Pressure 29.94 in
Visibility 2.5 miles
Clouds Clear
Dew Point 61 °F
Humidity 98%
Rainfall 0.00 in
Snow Depth Not available.
UV 0 out of 12
Pollen 3.90 out of 12
Air Quality Not available.
Flu Activity Not available.
METAR KBKW 300551Z AUTO 00000KT 2 1/2SM BR CLR 14/13 A3000 RMK AO2 VIS 1/2 RWY19 SLP136 T01390128 10167 20133 56008 TSNO

More Conditions Fewer Conditions

10-Day Weather Forecast

Almanac

Astronomy

Sep. 30, 2014 Rise Set
Actual Time 7:20 AM EDT 7:10 PM EDT
Civil Twilight 6:54 AM EDT 7:36 PM EDT
Nautical Twilight 6:23 AM EDT 8:07 PM EDT
Astronomical Twilight 5:53 AM EDT 8:37 PM EDT
Moon 1:23 PM EDT 11:43 PM EDT
Length of Visible Light 12h 42m
Length of Day
11h 49m
Tomorrow will be 2m 26s shorter.
Waxing Crescent, 33% of the Moon is Illuminated
Today
Waxing Crescent
Oct 1
First Quarter
Oct 8
Full
Oct 15
Last Quarter
Oct 23
New

Today's Extremes

State Highs State Lows

Community

WunderPhotos

Upload Photos

1,757,577 photos uploaded!

Nearby

Snow Depth

Station Depth Elevation
No new snow has been reported.

Earthquake Activity

City Distance Mag. Time & Date
No recent earthquake activity has been reported nearby.
Minimum magnitude displayed is 2.5.

Coastal Water Temperatures

Place Temperature
No Stations Reporting

Nearby Weather Stations